sensor_id;sensor_type;location;lat;lon;timestamp;pressure;altitude;pressure_sealevel;temperature;humidity
58955;BME280;45815;52.334;5.024;2024-02-14T00:00:08;101235.28;;;8.06;100.00
58955;BME280;45815;52.334;5.024;2024-02-14T00:02:44;101239.06;;;8.14;100.00
58955;BME280;45815;52.334;5.024;2024-02-14T00:05:10;101239.13;;;8.16;100.00
58955;BME280;45815;52.334;5.024;2024-02-14T00:07:39;101237.53;;;8.19;100.00
58955;BME280;45815;52.334;5.024;2024-02-14T00:10:05;101234.06;;;8.20;100.00
58955;BME280;45815;52.334;5.024;2024-02-14T00:12:35;101240.16;;;8.21;100.00
58955;BME280;45815;52.334;5.024;2024-02-14T00:15:01;101226.44;;;8.27;100.00
58955;BME280;45815;52.334;5.024;2024-02-14T00:17:28;101234.38;;;8.30;100.00
58955;BME280;45815;52.334;5.024;2024-02-14T00:19:54;101224.00;;;8.33;100.00
58955;BME280;45815;52.334;5.024;2024-02-14T00:22:19;101221.41;;;8.33;100.00
58955;BME280;45815;52.334;5.024;2024-02-14T00:24:44;101214.59;;;8.38;100.00
58955;BME280;45815;52.334;5.024;2024-02-14T00:27:10;101213.75;;;8.39;100.00
58955;BME280;45815;52.334;5.024;2024-02-14T00:29:35;101203.44;;;8.42;100.00
58955;BME280;45815;52.334;5.024;2024-02-14T00:32:01;101206.75;;;8.38;100.00
58955;BME280;45815;52.334;5.024;2024-02-14T00:34:26;101200.00;;;8.43;100.00
58955;BME280;45815;52.334;5.024;2024-02-14T00:36:52;101199.22;;;8.47;100.00
58955;BME280;45815;52.334;5.024;2024-02-14T00:39:17;101196.63;;;8.47;100.00
58955;BME280;45815;52.334;5.024;2024-02-14T00:41:43;101205.25;;;8.44;100.00
58955;BME280;45815;52.334;5.024;2024-02-14T00:44:08;101204.53;;;8.49;100.00
58955;BME280;45815;52.334;5.024;2024-02-14T00:46:34;101209.81;;;8.50;100.00
58955;BME280;45815;52.334;5.024;2024-02-14T00:48:59;101196.84;;;8.53;100.00
58955;BME280;45815;52.334;5.024;2024-02-14T00:51:25;101210.00;;;8.56;100.00
58955;BME280;45815;52.334;5.024;2024-02-14T00:53:52;101193.38;;;8.54;100.00
58955;BME280;45815;52.334;5.024;2024-02-14T00:56:17;101195.25;;;8.58;100.00
58955;BME280;45815;52.334;5.024;2024-02-14T00:58:43;101197.94;;;8.60;100.00
58955;BME280;45815;52.334;5.024;2024-02-14T01:01:08;101195.34;;;8.61;100.00
58955;BME280;45815;52.334;5.024;2024-02-14T01:03:34;101183.84;;;8.56;100.00
58955;BME280;45815;52.334;5.024;2024-02-14T01:06:00;101208.69;;;8.69;100.00
58955;BME280;45815;52.334;5.024;2024-02-14T01:08:25;101199.19;;;8.71;100.00
58955;BME280;45815;52.334;5.024;2024-02-14T01:10:50;101197.59;;;8.76;100.00
58955;BME280;45815;52.334;5.024;2024-02-14T01:13:18;101174.69;;;8.69;100.00
58955;BME280;45815;52.334;5.024;2024-02-14T01:15:43;101195.19;;;8.84;100.00
58955;BME280;45815;52.334;5.024;2024-02-14T01:18:09;101199.56;;;8.83;100.00
58955;BME280;45815;52.334;5.024;2024-02-14T01:20:35;101199.63;;;8.85;100.00
58955;BME280;45815;52.334;5.024;2024-02-14T01:23:01;101208.28;;;8.84;100.00
58955;BME280;45815;52.334;5.024;2024-02-14T01:25:26;101200.53;;;8.87;100.00
58955;BME280;45815;52.334;5.024;2024-02-14T01:27:51;101196.34;;;8.92;100.00
58955;BME280;45815;52.334;5.024;2024-02-14T01:30:18;101198.13;;;8.93;100.00
58955;BME280;45815;52.334;5.024;2024-02-14T01:32:43;101208.59;;;8.93;100.00
58955;BME280;45815;52.334;5.024;2024-02-14T01:35:09;101204.34;;;8.97;100.00
58955;BME280;45815;52.334;5.024;2024-02-14T01:37:35;101203.44;;;8.96;100.00
58955;BME280;45815;52.334;5.024;2024-02-14T01:40:00;101197.31;;;8.96;100.00
58955;BME280;45815;52.334;5.024;2024-02-14T01:42:26;101206.19;;;8.99;100.00
58955;BME280;45815;52.334;5.024;2024-02-14T01:44:53;101208.03;;;9.03;100.00
58955;BME280;45815;52.334;5.024;2024-02-14T01:47:20;101208.88;;;9.02;100.00
58955;BME280;45815;52.334;5.024;2024-02-14T01:49:46;101212.53;;;9.07;100.00
58955;BME280;45815;52.334;5.024;2024-02-14T01:52:12;101213.53;;;9.11;100.00
58955;BME280;45815;52.334;5.024;2024-02-14T01:54:39;101216.16;;;9.13;100.00
58955;BME280;45815;52.334;5.024;2024-02-14T01:57:05;101216.22;;;9.14;100.00
58955;BME280;45815;52.334;5.024;2024-02-14T01:59:32;101209.38;;;9.18;100.00
58955;BME280;45815;52.334;5.024;2024-02-14T02:01:59;101204.94;;;9.17;100.00
58955;BME280;45815;52.334;5.024;2024-02-14T02:04:25;101207.50;;;9.15;100.00
58955;BME280;45815;52.334;5.024;2024-02-14T02:06:50;101225.19;;;9.22;100.00
58955;BME280;45815;52.334;5.024;2024-02-14T02:09:16;101216.50;;;9.23;100.00
58955;BME280;45815;52.334;5.024;2024-02-14T02:11:45;101220.88;;;9.24;100.00
58955;BME280;45815;52.334;5.024;2024-02-14T02:14:11;101216.56;;;9.25;100.00
58955;BME280;45815;52.334;5.024;2024-02-14T02:16:37;101223.56;;;9.26;100.00
58955;BME280;45815;52.334;5.024;2024-02-14T02:19:03;101224.50;;;9.28;100.00
58955;BME280;45815;52.334;5.024;2024-02-14T02:21:30;101221.03;;;9.29;100.00
58955;BME280;45815;52.334;5.024;2024-02-14T02:23:55;101226.38;;;9.32;100.00
58955;BME280;45815;52.334;5.024;2024-02-14T02:26:21;101227.41;;;9.37;100.00
58955;BME280;45815;52.334;5.024;2024-02-14T02:28:46;101231.84;;;9.40;100.00
58955;BME280;45815;52.334;5.024;2024-02-14T02:31:12;101218.59;;;9.35;100.00
58955;BME280;45815;52.334;5.024;2024-02-14T02:33:37;101223.13;;;9.41;100.00
58955;BME280;45815;52.334;5.024;2024-02-14T02:36:03;101224.94;;;9.42;100.00
58955;BME280;45815;52.334;5.024;2024-02-14T02:38:28;101217.06;;;9.42;100.00
58955;BME280;45815;52.334;5.024;2024-02-14T02:40:54;101222.38;;;9.45;100.00
58955;BME280;45815;52.334;5.024;2024-02-14T02:43:19;101226.81;;;9.47;100.00
58955;BME280;45815;52.334;5.024;2024-02-14T02:45:44;101222.56;;;9.51;100.00
58955;BME280;45815;52.334;5.024;2024-02-14T02:48:10;101226.06;;;9.51;100.00
58955;BME280;45815;52.334;5.024;2024-02-14T02:50:35;101229.56;;;9.50;100.00
58955;BME280;45815;52.334;5.024;2024-02-14T02:53:01;101235.69;;;9.52;100.00
58955;BME280;45815;52.334;5.024;2024-02-14T02:55:26;101224.34;;;9.52;100.00
58955;BME280;45815;52.334;5.024;2024-02-14T02:57:52;101233.09;;;9.52;100.00
58955;BME280;45815;52.334;5.024;2024-02-14T03:00:18;101236.56;;;9.51;100.00
58955;BME280;45815;52.334;5.024;2024-02-14T03:02:46;101231.47;;;9.56;100.00
58955;BME280;45815;52.334;5.024;2024-02-14T03:05:12;101234.97;;;9.57;100.00
58955;BME280;45815;52.334;5.024;2024-02-14T03:07:46;101234.13;;;9.58;100.00
58955;BME280;45815;52.334;5.024;2024-02-14T03:10:13;101229.78;;;9.58;100.00
58955;BME280;45815;52.334;5.024;2024-02-14T03:12:39;101238.53;;;9.59;100.00
58955;BME280;45815;52.334;5.024;2024-02-14T03:15:05;101231.59;;;9.61;100.00
58955;BME280;45815;52.334;5.024;2024-02-14T03:17:31;101233.34;;;9.62;100.00
58955;BME280;45815;52.334;5.024;2024-02-14T03:19:57;101230.78;;;9.63;100.00
58955;BME280;45815;52.334;5.024;2024-02-14T03:22:22;101237.78;;;9.64;100.00
58955;BME280;45815;52.334;5.024;2024-02-14T03:24:48;101229.91;;;9.63;100.00
58955;BME280;45815;52.334;5.024;2024-02-14T03:27:13;101242.28;;;9.67;100.00
58955;BME280;45815;52.334;5.024;2024-02-14T03:29:38;101243.16;;;9.69;100.00
58955;BME280;45815;52.334;5.024;2024-02-14T03:32:05;101244.09;;;9.69;100.00
58955;BME280;45815;52.334;5.024;2024-02-14T03:34:31;101247.66;;;9.73;100.00
58955;BME280;45815;52.334;5.024;2024-02-14T03:36:59;101239.81;;;9.73;100.00
58955;BME280;45815;52.334;5.024;2024-02-14T03:39:26;101242.69;;;9.82;100.00
58955;BME280;45815;52.334;5.024;2024-02-14T03:41:51;101252.44;;;9.88;100.00
58955;BME280;45815;52.334;5.024;2024-02-14T03:44:19;101256.00;;;9.90;100.00
58955;BME280;45815;52.334;5.024;2024-02-14T03:46:45;101253.44;;;9.91;100.00
58955;BME280;45815;52.334;5.024;2024-02-14T03:49:13;101261.44;;;9.96;100.00
58955;BME280;45815;52.334;5.024;2024-02-14T03:51:38;101255.38;;;9.99;100.00
58955;BME280;45815;52.334;5.024;2024-02-14T03:54:03;101258.00;;;9.99;100.00
58955;BME280;45815;52.334;5.024;2024-02-14T03:56:29;101254.63;;;10.03;100.00
58955;BME280;45815;52.334;5.024;2024-02-14T03:58:55;101261.78;;;10.08;100.00
58955;BME280;45815;52.334;5.024;2024-02-14T04:01:20;101258.34;;;10.11;100.00
58955;BME280;45815;52.334;5.024;2024-02-14T04:03:46;101262.84;;;10.15;100.00
58955;BME280;45815;52.334;5.024;2024-02-14T04:06:13;101260.28;;;10.18;100.00
58955;BME280;45815;52.334;5.024;2024-02-14T04:08:39;101262.16;;;10.22;100.00
58955;BME280;45815;52.334;5.024;2024-02-14T04:11:04;101250.66;;;10.17;100.00
58955;BME280;45815;52.334;5.024;2024-02-14T04:13:30;101258.78;;;10.26;100.00
58955;BME280;45815;52.334;5.024;2024-02-14T04:15:55;101264.84;;;10.25;100.00
58955;BME280;45815;52.334;5.024;2024-02-14T04:18:21;101270.25;;;10.28;100.00
58955;BME280;45815;52.334;5.024;2024-02-14T04:20:46;101279.03;;;10.30;100.00
58955;BME280;45815;52.334;5.024;2024-02-14T04:23:11;101275.56;;;10.31;100.00
58955;BME280;45815;52.334;5.024;2024-02-14T04:25:37;101269.44;;;10.31;100.00
58955;BME280;45815;52.334;5.024;2024-02-14T04:28:03;101291.38;;;10.34;100.00
58955;BME280;45815;52.334;5.024;2024-02-14T04:30:29;101288.00;;;10.39;100.00
58955;BME280;45815;52.334;5.024;2024-02-14T04:32:54;101299.38;;;10.39;100.00
58955;BME280;45815;52.334;5.024;2024-02-14T04:35:20;101297.72;;;10.43;100.00
58955;BME280;45815;52.334;5.024;2024-02-14T04:37:46;101289.00;;;10.44;100.00
58955;BME280;45815;52.334;5.024;2024-02-14T04:40:13;101297.78;;;10.44;100.00
58955;BME280;45815;52.334;5.024;2024-02-14T04:42:42;101291.72;;;10.47;100.00
58955;BME280;45815;52.334;5.024;2024-02-14T04:45:08;101286.38;;;10.44;100.00
58955;BME280;45815;52.334;5.024;2024-02-14T04:47:33;101297.84;;;10.47;100.00
58955;BME280;45815;52.334;5.024;2024-02-14T04:49:59;101291.81;;;10.50;100.00
58955;BME280;45815;52.334;5.024;2024-02-14T04:52:25;101285.50;;;10.43;100.00
58955;BME280;45815;52.334;5.024;2024-02-14T04:54:50;101301.53;;;10.54;100.00
58955;BME280;45815;52.334;5.024;2024-02-14T04:57:16;101302.47;;;10.56;100.00
58955;BME280;45815;52.334;5.024;2024-02-14T04:59:43;101304.25;;;10.57;100.00
58955;BME280;45815;52.334;5.024;2024-02-14T05:02:09;101309.56;;;10.60;100.00
58955;BME280;45815;52.334;5.024;2024-02-14T05:04:35;101309.59;;;10.62;100.00
58955;BME280;45815;52.334;5.024;2024-02-14T05:07:03;101310.50;;;10.62;100.00
58955;BME280;45815;52.334;5.024;2024-02-14T05:09:29;101309.66;;;10.63;100.00
58955;BME280;45815;52.334;5.024;2024-02-14T05:11:54;101320.19;;;10.65;100.00
58955;BME280;45815;52.334;5.024;2024-02-14T05:14:20;101316.72;;;10.66;100.00
58955;BME280;45815;52.334;5.024;2024-02-14T05:16:45;101312.41;;;10.68;100.00
58955;BME280;45815;52.334;5.024;2024-02-14T05:19:11;101313.34;;;10.71;100.00
58955;BME280;45815;52.334;5.024;2024-02-14T05:21:37;101320.41;;;10.72;100.00
58955;BME280;45815;52.334;5.024;2024-02-14T05:24:03;101322.81;;;10.65;100.00
58955;BME280;45815;52.334;5.024;2024-02-14T05:26:29;101325.56;;;10.69;100.00
58955;BME280;45815;52.334;5.024;2024-02-14T05:28:54;101308.78;;;10.64;100.00
58955;BME280;45815;52.334;5.024;2024-02-14T05:31:20;101313.28;;;10.68;100.00
58955;BME280;45815;52.334;5.024;2024-02-14T05:33:45;101316.03;;;10.73;100.00
58955;BME280;45815;52.334;5.024;2024-02-14T05:36:11;101321.34;;;10.76;100.00
58955;BME280;45815;52.334;5.024;2024-02-14T05:38:36;101321.41;;;10.79;100.00
58955;BME280;45815;52.334;5.024;2024-02-14T05:41:01;101325.78;;;10.78;100.00
58955;BME280;45815;52.334;5.024;2024-02-14T05:43:27;101330.28;;;10.83;100.00
58955;BME280;45815;52.334;5.024;2024-02-14T05:45:52;101329.34;;;10.81;100.00
58955;BME280;45815;52.334;5.024;2024-02-14T05:48:19;101332.97;;;10.86;100.00
58955;BME280;45815;52.334;5.024;2024-02-14T05:50:45;101331.22;;;10.85;100.00
58955;BME280;45815;52.334;5.024;2024-02-14T05:53:10;101332.16;;;10.87;100.00
58955;BME280;45815;52.334;5.024;2024-02-14T05:55:38;101340.84;;;10.84;100.00
58955;BME280;45815;52.334;5.024;2024-02-14T05:58:03;101342.53;;;10.82;100.00
58955;BME280;45815;52.334;5.024;2024-02-14T06:00:29;101350.53;;;10.87;100.00
58955;BME280;45815;52.334;5.024;2024-02-14T06:02:54;101340.91;;;10.87;100.00
58955;BME280;45815;52.334;5.024;2024-02-14T06:05:20;101351.53;;;10.92;100.00
58955;BME280;45815;52.334;5.024;2024-02-14T06:07:45;101355.91;;;10.91;100.00
58955;BME280;45815;52.334;5.024;2024-02-14T06:10:11;101340.84;;;10.84;100.00
58955;BME280;45815;52.334;5.024;2024-02-14T06:12:37;101360.16;;;10.88;100.00
58955;BME280;45815;52.334;5.024;2024-02-14T06:15:02;101361.88;;;10.86;100.00
58955;BME280;45815;52.334;5.024;2024-02-14T06:17:28;101363.81;;;10.93;100.00
58955;BME280;45815;52.334;5.024;2024-02-14T06:19:54;101348.84;;;10.89;100.00
58955;BME280;45815;52.334;5.024;2024-02-14T06:22:19;101358.66;;;10.96;100.00
58955;BME280;45815;52.334;5.024;2024-02-14T06:24:48;101362.22;;;10.98;100.00
58955;BME280;45815;52.334;5.024;2024-02-14T06:27:16;101354.31;;;10.98;100.00
58955;BME280;45815;52.334;5.024;2024-02-14T06:29:42;101368.41;;;11.02;100.00
58955;BME280;45815;52.334;5.024;2024-02-14T06:32:08;101374.47;;;10.99;100.00
58955;BME280;45815;52.334;5.024;2024-02-14T06:34:33;101376.28;;;11.02;100.00
58955;BME280;45815;52.334;5.024;2024-02-14T06:36:58;101384.06;;;10.97;100.00
58955;BME280;45815;52.334;5.024;2024-02-14T06:39:24;101381.47;;;10.98;100.00
58955;BME280;45815;52.334;5.024;2024-02-14T06:41:49;101379.72;;;10.99;100.00
58955;BME280;45815;52.334;5.024;2024-02-14T06:44:15;101389.38;;;11.00;100.00
58955;BME280;45815;52.334;5.024;2024-02-14T06:46:40;101396.44;;;11.01;100.00
58955;BME280;45815;52.334;5.024;2024-02-14T06:49:07;101402.50;;;11.00;100.00
58955;BME280;45815;52.334;5.024;2024-02-14T06:51:33;101391.84;;;10.94;100.00
58955;BME280;45815;52.334;5.024;2024-02-14T06:53:58;101386.69;;;10.97;100.00
58955;BME280;45815;52.334;5.024;2024-02-14T06:56:24;101388.31;;;10.92;100.00
58955;BME280;45815;52.334;5.024;2024-02-14T06:58:49;101386.75;;;11.00;100.00
58955;BME280;45815;52.334;5.024;2024-02-14T07:01:19;101391.16;;;11.01;100.00
58955;BME280;45815;52.334;5.024;2024-02-14T07:03:47;101398.13;;;10.99;100.00
58955;BME280;45815;52.334;5.024;2024-02-14T07:06:13;101406.28;;;11.10;100.00
58955;BME280;45815;52.334;5.024;2024-02-14T07:08:42;101407.16;;;11.10;100.00
58955;BME280;45815;52.334;5.024;2024-02-14T07:11:07;101410.72;;;11.12;100.00
58955;BME280;45815;52.334;5.024;2024-02-14T07:13:32;101404.53;;;11.10;100.00
58955;BME280;45815;52.334;5.024;2024-02-14T07:15:58;101414.28;;;11.14;100.00
58955;BME280;45815;52.334;5.024;2024-02-14T07:18:23;101414.28;;;11.14;100.00
58955;BME280;45815;52.334;5.024;2024-02-14T07:20:49;101422.25;;;11.17;100.00
58955;BME280;45815;52.334;5.024;2024-02-14T07:23:14;101420.56;;;11.19;100.00
58955;BME280;45815;52.334;5.024;2024-02-14T07:25:39;101416.06;;;11.15;100.00
58955;BME280;45815;52.334;5.024;2024-02-14T07:28:05;101417.75;;;11.13;100.00
58955;BME280;45815;52.334;5.024;2024-02-14T07:30:31;101418.81;;;11.20;100.00
58955;BME280;45815;52.334;5.024;2024-02-14T07:32:56;101423.25;;;11.23;100.00
58955;BME280;45815;52.334;5.024;2024-02-14T07:35:22;101421.44;;;11.20;100.00
58955;BME280;45815;52.334;5.024;2024-02-14T07:37:48;101426.81;;;11.25;100.00
58955;BME280;45815;52.334;5.024;2024-02-14T07:40:13;101412.53;;;11.15;100.00
58955;BME280;45815;52.334;5.024;2024-02-14T07:42:39;101422.47;;;11.27;100.00
58955;BME280;45815;52.334;5.024;2024-02-14T07:45:05;101421.72;;;11.31;100.00
58955;BME280;45815;52.334;5.024;2024-02-14T07:47:30;101431.44;;;11.35;100.00
58955;BME280;45815;52.334;5.024;2024-02-14T07:49:56;101427.81;;;11.30;100.00
58955;BME280;45815;52.334;5.024;2024-02-14T07:52:22;101426.97;;;11.31;100.00
58955;BME280;45815;52.334;5.024;2024-02-14T07:54:52;101434.16;;;11.38;100.00
58955;BME280;45815;52.334;5.024;2024-02-14T07:57:17;101434.16;;;11.38;100.00
58955;BME280;45815;52.334;5.024;2024-02-14T07:59:43;101432.53;;;11.43;100.00
58955;BME280;45815;52.334;5.024;2024-02-14T08:02:08;101444.69;;;11.39;100.00
58955;BME280;45815;52.334;5.024;2024-02-14T08:04:34;101444.75;;;11.41;100.00
58955;BME280;45815;52.334;5.024;2024-02-14T08:06:59;101444.81;;;11.44;100.00
58955;BME280;45815;52.334;5.024;2024-02-14T08:09:24;101451.69;;;11.39;100.00
58955;BME280;45815;52.334;5.024;2024-02-14T08:11:50;101449.13;;;11.40;100.00
58955;BME280;45815;52.334;5.024;2024-02-14T08:14:18;101454.41;;;11.42;100.00
58955;BME280;45815;52.334;5.024;2024-02-14T08:16:43;101446.50;;;11.42;100.00
58955;BME280;45815;52.334;5.024;2024-02-14T08:19:09;101447.31;;;11.38;100.00
58955;BME280;45815;52.334;5.024;2024-02-14T08:21:34;101457.94;;;11.44;100.00
58955;BME280;45815;52.334;5.024;2024-02-14T08:24:00;101450.06;;;11.44;100.00
58955;BME280;45815;52.334;5.024;2024-02-14T08:26:25;101453.63;;;11.46;100.00
58955;BME280;45815;52.334;5.024;2024-02-14T08:28:50;101455.50;;;11.50;100.00
58955;BME280;45815;52.334;5.024;2024-02-14T08:31:16;101458.13;;;11.50;100.00
58955;BME280;45815;52.334;5.024;2024-02-14T08:33:42;101459.78;;;11.47;100.00
58955;BME280;45815;52.334;5.024;2024-02-14T08:36:07;101458.13;;;11.50;100.00
58955;BME280;45815;52.334;5.024;2024-02-14T08:38:33;101465.06;;;11.48;100.00
58955;BME280;45815;52.334;5.024;2024-02-14T08:41:01;101459.00;;;11.51;100.00
58955;BME280;45815;52.334;5.024;2024-02-14T08:43:27;101461.69;;;11.52;100.00
58955;BME280;45815;52.334;5.024;2024-02-14T08:45:54;101449.31;;;11.48;100.00
58955;BME280;45815;52.334;5.024;2024-02-14T08:48:20;101462.63;;;11.54;100.00
58955;BME280;45815;52.334;5.024;2024-02-14T08:50:45;101465.19;;;11.53;100.00
58955;BME280;45815;52.334;5.024;2024-02-14T08:53:12;101464.38;;;11.55;100.00
58955;BME280;45815;52.334;5.024;2024-02-14T08:55:39;101464.38;;;11.55;100.00
58955;BME280;45815;52.334;5.024;2024-02-14T08:58:05;101457.25;;;11.51;100.00
58955;BME280;45815;52.334;5.024;2024-02-14T09:00:30;101474.94;;;11.57;100.00
58955;BME280;45815;52.334;5.024;2024-02-14T09:02:56;101473.25;;;11.59;100.00
58955;BME280;45815;52.334;5.024;2024-02-14T09:05:25;101473.13;;;11.54;100.00
58955;BME280;45815;52.334;5.024;2024-02-14T09:07:51;101477.53;;;11.55;100.00
58955;BME280;45815;52.334;5.024;2024-02-14T09:10:16;101481.09;;;11.57;100.00
58955;BME280;45815;52.334;5.024;2024-02-14T09:12:42;101475.06;;;11.61;100.00
58955;BME280;45815;52.334;5.024;2024-02-14T09:15:08;101483.72;;;11.57;100.00
58955;BME280;45815;52.334;5.024;2024-02-14T09:17:33;101481.13;;;11.59;100.00
58955;BME280;45815;52.334;5.024;2024-02-14T09:19:59;101489.91;;;11.61;100.00
58955;BME280;45815;52.334;5.024;2024-02-14T09:22:24;101489.84;;;11.58;100.00
58955;BME280;45815;52.334;5.024;2024-02-14T09:24:50;101497.63;;;11.53;100.00
58955;BME280;45815;52.334;5.024;2024-02-14T09:27:16;101495.03;;;11.55;100.00
58955;BME280;45815;52.334;5.024;2024-02-14T09:29:41;101494.16;;;11.54;100.00
58955;BME280;45815;52.334;5.024;2024-02-14T09:32:07;101501.25;;;11.58;100.00
58955;BME280;45815;52.334;5.024;2024-02-14T09:34:34;101489.09;;;11.62;100.00
58955;BME280;45815;52.334;5.024;2024-02-14T09:36:59;101489.22;;;11.67;100.00
58955;BME280;45815;52.334;5.024;2024-02-14T09:39:25;101497.09;;;11.68;100.00
58955;BME280;45815;52.334;5.024;2024-02-14T09:41:58;101489.22;;;11.67;100.00
58955;BME280;45815;52.334;5.024;2024-02-14T09:44:27;101484.88;;;11.70;100.00
58955;BME280;45815;52.334;5.024;2024-02-14T09:46:54;101499.84;;;11.71;100.00
58955;BME280;45815;52.334;5.024;2024-02-14T09:49:21;101488.34;;;11.68;100.00
58955;BME280;45815;52.334;5.024;2024-02-14T09:51:47;101493.59;;;11.66;100.00
58955;BME280;45815;52.334;5.024;2024-02-14T09:54:15;101501.59;;;11.71;100.00
58955;BME280;45815;52.334;5.024;2024-02-14T09:56:43;101496.31;;;11.71;100.00
58955;BME280;45815;52.334;5.024;2024-02-14T09:59:13;101500.66;;;11.69;100.00
58955;BME280;45815;52.334;5.024;2024-02-14T10:01:39;101492.75;;;11.69;100.00
58955;BME280;45815;52.334;5.024;2024-02-14T10:04:05;101496.16;;;11.65;100.00
58955;BME280;45815;52.334;5.024;2024-02-14T10:06:30;101494.47;;;11.67;100.00
58955;BME280;45815;52.334;5.024;2024-02-14T10:08:56;101496.22;;;11.68;100.00
58955;BME280;45815;52.334;5.024;2024-02-14T10:11:22;101500.66;;;11.70;100.00
58955;BME280;45815;52.334;5.024;2024-02-14T10:13:48;101499.72;;;11.67;100.00
58955;BME280;45815;52.334;5.024;2024-02-14T10:16:15;101503.28;;;11.69;100.00
58955;BME280;45815;52.334;5.024;2024-02-14T10:18:41;101498.84;;;11.66;100.00
58955;BME280;45815;52.334;5.024;2024-02-14T10:21:13;101508.69;;;11.75;100.00
58955;BME280;45815;52.334;5.024;2024-02-14T10:23:41;101506.72;;;11.66;100.00
58955;BME280;45815;52.334;5.024;2024-02-14T10:26:06;101505.09;;;11.71;100.00
58955;BME280;45815;52.334;5.024;2024-02-14T10:28:32;101508.69;;;11.75;100.00
58955;BME280;45815;52.334;5.024;2024-02-14T10:30:58;101514.91;;;11.78;100.00
58955;BME280;45815;52.334;5.024;2024-02-14T10:33:43;101517.59;;;11.80;100.00
58955;BME280;45815;52.334;5.024;2024-02-14T10:36:12;101516.66;;;11.78;100.00
58955;BME280;45815;52.334;5.024;2024-02-14T10:38:39;101518.47;;;11.80;100.00
58955;BME280;45815;52.334;5.024;2024-02-14T10:41:05;101517.59;;;11.80;100.00
58955;BME280;45815;52.334;5.024;2024-02-14T10:43:30;101525.44;;;11.78;100.00
58955;BME280;45815;52.334;5.024;2024-02-14T10:45:59;101509.78;;;11.83;100.00
58955;BME280;45815;52.334;5.024;2024-02-14T10:48:25;101504.56;;;11.86;100.00
58955;BME280;45815;52.334;5.024;2024-02-14T10:50:57;101518.63;;;11.87;100.00
58955;BME280;45815;52.334;5.024;2024-02-14T10:53:25;101517.81;;;11.89;100.00
58955;BME280;45815;52.334;5.024;2024-02-14T10:55:51;101510.81;;;11.88;100.00
58955;BME280;45815;52.334;5.024;2024-02-14T10:58:17;101510.97;;;11.96;100.00
58955;BME280;45815;52.334;5.024;2024-02-14T11:00:43;101516.41;;;12.02;100.00
58955;BME280;45815;52.334;5.024;2024-02-14T11:03:09;101516.44;;;12.03;100.00
58955;BME280;45815;52.334;5.024;2024-02-14T11:05:47;101492.59;;;11.97;100.00
58955;BME280;45815;52.334;5.024;2024-02-14T11:08:19;101516.34;;;12.00;100.00
58955;BME280;45815;52.334;5.024;2024-02-14T11:10:56;101514.66;;;12.02;100.00
58955;BME280;45815;52.334;5.024;2024-02-14T11:13:29;101525.34;;;12.09;100.00
58955;BME280;45815;52.334;5.024;2024-02-14T11:16:01;101518.22;;;12.04;100.00
58955;BME280;45815;52.334;5.024;2024-02-14T11:18:28;101517.41;;;12.07;100.00
58955;BME280;45815;52.334;5.024;2024-02-14T11:20:58;101503.34;;;12.07;100.00
58955;BME280;45815;52.334;5.024;2024-02-14T11:23:24;101503.34;;;12.07;100.00
58955;BME280;45815;52.334;5.024;2024-02-14T11:25:50;101497.31;;;12.11;100.00
58955;BME280;45815;52.334;5.024;2024-02-14T11:28:24;101498.25;;;12.14;100.00
58955;BME280;45815;52.334;5.024;2024-02-14T11:30:51;101493.66;;;12.04;100.00
58955;BME280;45815;52.334;5.024;2024-02-14T11:35:49;101500.88;;;12.13;100.00
58955;BME280;45815;52.334;5.024;2024-02-14T11:38:17;101490.13;;;12.03;100.00
58955;BME280;45815;52.334;5.024;2024-02-14T11:40:43;101505.97;;;12.07;100.00
58955;BME280;45815;52.334;5.024;2024-02-14T11:43:15;101501.56;;;12.06;100.00
58955;BME280;45815;52.334;5.024;2024-02-14T11:45:42;101505.09;;;12.06;100.00
58955;BME280;45815;52.334;5.024;2024-02-14T11:48:13;101504.28;;;12.09;100.00
58955;BME280;45815;52.334;5.024;2024-02-14T11:50:41;101500.88;;;12.13;100.00
58955;BME280;45815;52.334;5.024;2024-02-14T11:53:09;101502.59;;;12.11;100.00
58955;BME280;45815;52.334;5.024;2024-02-14T11:55:40;101490.97;;;12.02;100.00
58955;BME280;45815;52.334;5.024;2024-02-14T11:58:13;101483.00;;;11.99;100.00
58955;BME280;45815;52.334;5.024;2024-02-14T12:00:40;101499.03;;;12.09;100.00
58955;BME280;45815;52.334;5.024;2024-02-14T12:03:24;101499.69;;;12.00;100.00
58955;BME280;45815;52.334;5.024;2024-02-14T12:05:51;101493.66;;;12.06;100.00
58955;BME280;45815;52.334;5.024;2024-02-14T12:08:17;101486.69;;;12.08;100.00
58955;BME280;45815;52.334;5.024;2024-02-14T12:10:44;101490.34;;;12.13;100.00
58955;BME280;45815;52.334;5.024;2024-02-14T12:13:14;101487.53;;;12.05;100.00
58955;BME280;45815;52.334;5.024;2024-02-14T12:15:47;101482.31;;;12.07;100.00
58955;BME280;45815;52.334;5.024;2024-02-14T12:18:12;101484.22;;;12.14;100.00
58955;BME280;45815;52.334;5.024;2024-02-14T12:20:39;101480.66;;;12.12;100.00
58955;BME280;45815;52.334;5.024;2024-02-14T12:23:05;101492.22;;;12.18;100.00
58955;BME280;45815;52.334;5.024;2024-02-14T12:25:31;101487.00;;;12.20;100.00
58955;BME280;45815;52.334;5.024;2024-02-14T12:27:58;101472.97;;;12.21;100.00
58955;BME280;45815;52.334;5.024;2024-02-14T12:30:54;101478.28;;;12.24;100.00
58955;BME280;45815;52.334;5.024;2024-02-14T12:33:21;101473.13;;;12.27;100.00
58955;BME280;45815;52.334;5.024;2024-02-14T12:35:49;101478.38;;;12.27;100.00
58955;BME280;45815;52.334;5.024;2024-02-14T12:38:17;101481.03;;;12.29;100.00
58955;BME280;45815;52.334;5.024;2024-02-14T12:40:43;101486.25;;;12.25;100.00